sensor_id;sensor_type;location;lat;lon;timestamp;P1;durP1;ratioP1;P2;durP2;ratioP2
17441;SDS011;8838;50.144;8.176;2023-08-17T00:00:58;12.40;;;3.92;;
17441;SDS011;8838;50.144;8.176;2023-08-17T00:03:25;11.27;;;3.80;;
17441;SDS011;8838;50.144;8.176;2023-08-17T00:05:52;5.20;;;4.63;;
17441;SDS011;8838;50.144;8.176;2023-08-17T00:08:19;7.18;;;5.22;;
17441;SDS011;8838;50.144;8.176;2023-08-17T00:10:45;6.80;;;4.78;;
17441;SDS011;8838;50.144;8.176;2023-08-17T00:13:14;5.80;;;4.78;;
17441;SDS011;8838;50.144;8.176;2023-08-17T00:15:41;8.20;;;5.25;;
17441;SDS011;8838;50.144;8.176;2023-08-17T00:18:10;7.28;;;5.03;;
17441;SDS011;8838;50.144;8.176;2023-08-17T00:20:37;8.88;;;4.82;;
17441;SDS011;8838;50.144;8.176;2023-08-17T00:23:03;7.68;;;5.50;;
17441;SDS011;8838;50.144;8.176;2023-08-17T00:25:30;6.93;;;5.22;;
17441;SDS011;8838;50.144;8.176;2023-08-17T00:27:57;7.40;;;5.38;;
17441;SDS011;8838;50.144;8.176;2023-08-17T00:30:26;6.43;;;4.70;;
17441;SDS011;8838;50.144;8.176;2023-08-17T00:32:53;5.55;;;4.25;;
17441;SDS011;8838;50.144;8.176;2023-08-17T00:35:20;6.30;;;4.75;;
17441;SDS011;8838;50.144;8.176;2023-08-17T00:37:48;12.27;;;6.13;;
17441;SDS011;8838;50.144;8.176;2023-08-17T00:40:17;7.10;;;5.47;;
17441;SDS011;8838;50.144;8.176;2023-08-17T00:42:44;9.75;;;6.10;;
17441;SDS011;8838;50.144;8.176;2023-08-17T00:45:10;8.68;;;6.07;;
17441;SDS011;8838;50.144;8.176;2023-08-17T00:47:39;11.23;;;7.82;;
17441;SDS011;8838;50.144;8.176;2023-08-17T00:50:06;9.73;;;7.28;;
17441;SDS011;8838;50.144;8.176;2023-08-17T00:52:33;10.52;;;7.65;;
17441;SDS011;8838;50.144;8.176;2023-08-17T00:55:01;10.35;;;7.13;;
17441;SDS011;8838;50.144;8.176;2023-08-17T00:57:29;10.93;;;7.97;;
17441;SDS011;8838;50.144;8.176;2023-08-17T01:00:00;10.57;;;7.05;;
17441;SDS011;8838;50.144;8.176;2023-08-17T01:02:28;10.02;;;8.20;;
17441;SDS011;8838;50.144;8.176;2023-08-17T01:04:57;11.90;;;8.02;;
17441;SDS011;8838;50.144;8.176;2023-08-17T01:07:24;13.80;;;8.95;;
17441;SDS011;8838;50.144;8.176;2023-08-17T01:09:51;12.18;;;9.30;;
17441;SDS011;8838;50.144;8.176;2023-08-17T01:12:19;11.50;;;7.57;;
17441;SDS011;8838;50.144;8.176;2023-08-17T01:14:53;9.23;;;8.20;;
17441;SDS011;8838;50.144;8.176;2023-08-17T01:17:40;12.63;;;9.90;;
17441;SDS011;8838;50.144;8.176;2023-08-17T01:20:11;15.80;;;10.75;;
17441;SDS011;8838;50.144;8.176;2023-08-17T01:22:42;12.57;;;8.93;;
17441;SDS011;8838;50.144;8.176;2023-08-17T01:25:13;14.00;;;10.50;;
17441;SDS011;8838;50.144;8.176;2023-08-17T01:27:40;18.95;;;11.00;;
17441;SDS011;8838;50.144;8.176;2023-08-17T01:30:08;16.35;;;10.85;;
17441;SDS011;8838;50.144;8.176;2023-08-17T01:32:39;17.45;;;10.50;;
17441;SDS011;8838;50.144;8.176;2023-08-17T01:35:11;13.05;;;10.98;;
17441;SDS011;8838;50.144;8.176;2023-08-17T01:37:45;15.18;;;10.10;;
17441;SDS011;8838;50.144;8.176;2023-08-17T01:40:13;13.57;;;9.77;;
17441;SDS011;8838;50.144;8.176;2023-08-17T01:42:41;14.13;;;10.27;;
17441;SDS011;8838;50.144;8.176;2023-08-17T01:45:09;15.13;;;9.85;;
17441;SDS011;8838;50.144;8.176;2023-08-17T01:47:37;18.48;;;9.82;;
17441;SDS011;8838;50.144;8.176;2023-08-17T01:50:04;20.00;;;9.98;;
17441;SDS011;8838;50.144;8.176;2023-08-17T01:52:31;20.58;;;8.40;;
17441;SDS011;8838;50.144;8.176;2023-08-17T01:54:58;18.40;;;7.97;;
17441;SDS011;8838;50.144;8.176;2023-08-17T01:57:26;42.72;;;7.95;;
17441;SDS011;8838;50.144;8.176;2023-08-17T01:59:53;17.08;;;7.63;;
17441;SDS011;8838;50.144;8.176;2023-08-17T02:02:20;16.75;;;7.88;;
17441;SDS011;8838;50.144;8.176;2023-08-17T02:04:47;14.93;;;6.80;;
17441;SDS011;8838;50.144;8.176;2023-08-17T02:07:14;23.58;;;6.55;;
17441;SDS011;8838;50.144;8.176;2023-08-17T02:09:41;47.22;;;6.07;;
17441;SDS011;8838;50.144;8.176;2023-08-17T02:12:07;11.18;;;5.65;;
17441;SDS011;8838;50.144;8.176;2023-08-17T02:14:36;10.75;;;5.80;;
17441;SDS011;8838;50.144;8.176;2023-08-17T02:17:02;7.63;;;4.93;;
17441;SDS011;8838;50.144;8.176;2023-08-17T02:19:30;9.88;;;4.78;;
17441;SDS011;8838;50.144;8.176;2023-08-17T02:21:57;12.73;;;5.25;;
17441;SDS011;8838;50.144;8.176;2023-08-17T02:24:24;16.83;;;4.93;;
17441;SDS011;8838;50.144;8.176;2023-08-17T02:26:51;17.70;;;5.65;;
17441;SDS011;8838;50.144;8.176;2023-08-17T02:29:18;14.50;;;5.47;;
17441;SDS011;8838;50.144;8.176;2023-08-17T02:31:46;47.35;;;4.38;;
17441;SDS011;8838;50.144;8.176;2023-08-17T02:34:13;45.30;;;3.88;;
17441;SDS011;8838;50.144;8.176;2023-08-17T02:36:40;24.40;;;3.95;;
17441;SDS011;8838;50.144;8.176;2023-08-17T02:39:07;29.35;;;4.28;;
17441;SDS011;8838;50.144;8.176;2023-08-17T02:41:34;29.98;;;4.03;;
17441;SDS011;8838;50.144;8.176;2023-08-17T02:44:01;16.83;;;3.60;;
17441;SDS011;8838;50.144;8.176;2023-08-17T02:46:28;12.68;;;3.65;;
17441;SDS011;8838;50.144;8.176;2023-08-17T02:48:56;13.02;;;3.72;;
17441;SDS011;8838;50.144;8.176;2023-08-17T02:51:23;24.02;;;3.90;;
17441;SDS011;8838;50.144;8.176;2023-08-17T02:53:50;20.95;;;3.72;;
17441;SDS011;8838;50.144;8.176;2023-08-17T02:56:16;36.35;;;4.00;;
17441;SDS011;8838;50.144;8.176;2023-08-17T02:58:43;13.40;;;3.40;;
17441;SDS011;8838;50.144;8.176;2023-08-17T03:01:10;10.15;;;3.08;;
17441;SDS011;8838;50.144;8.176;2023-08-17T03:03:37;14.38;;;3.38;;
17441;SDS011;8838;50.144;8.176;2023-08-17T03:06:05;14.13;;;3.25;;
17441;SDS011;8838;50.144;8.176;2023-08-17T03:08:33;19.70;;;2.78;;
17441;SDS011;8838;50.144;8.176;2023-08-17T03:11:00;17.65;;;2.88;;
17441;SDS011;8838;50.144;8.176;2023-08-17T03:13:27;20.60;;;2.70;;
17441;SDS011;8838;50.144;8.176;2023-08-17T03:15:54;44.35;;;3.53;;
17441;SDS011;8838;50.144;8.176;2023-08-17T03:18:21;15.27;;;3.45;;
17441;SDS011;8838;50.144;8.176;2023-08-17T03:20:47;18.98;;;3.05;;
17441;SDS011;8838;50.144;8.176;2023-08-17T03:23:15;18.02;;;3.42;;
17441;SDS011;8838;50.144;8.176;2023-08-17T03:25:42;23.60;;;3.40;;
17441;SDS011;8838;50.144;8.176;2023-08-17T03:28:10;33.45;;;2.83;;
17441;SDS011;8838;50.144;8.176;2023-08-17T03:30:37;19.80;;;2.90;;
17441;SDS011;8838;50.144;8.176;2023-08-17T03:33:04;26.73;;;3.22;;
17441;SDS011;8838;50.144;8.176;2023-08-17T03:35:30;31.83;;;3.40;;
17441;SDS011;8838;50.144;8.176;2023-08-17T03:37:57;12.02;;;3.00;;
17441;SDS011;8838;50.144;8.176;2023-08-17T03:40:25;13.63;;;3.42;;
17441;SDS011;8838;50.144;8.176;2023-08-17T03:42:52;25.48;;;3.78;;
17441;SDS011;8838;50.144;8.176;2023-08-17T03:45:19;25.13;;;3.65;;
17441;SDS011;8838;50.144;8.176;2023-08-17T03:47:45;45.17;;;3.70;;
17441;SDS011;8838;50.144;8.176;2023-08-17T03:50:14;15.85;;;3.50;;
17441;SDS011;8838;50.144;8.176;2023-08-17T03:52:41;25.40;;;3.85;;
17441;SDS011;8838;50.144;8.176;2023-08-17T03:55:09;13.80;;;3.80;;
17441;SDS011;8838;50.144;8.176;2023-08-17T03:57:37;23.73;;;4.20;;
17441;SDS011;8838;50.144;8.176;2023-08-17T04:00:04;14.90;;;4.13;;
17441;SDS011;8838;50.144;8.176;2023-08-17T04:02:32;17.52;;;4.05;;
17441;SDS011;8838;50.144;8.176;2023-08-17T04:04:59;61.22;;;5.30;;
17441;SDS011;8838;50.144;8.176;2023-08-17T04:07:26;25.90;;;4.25;;
17441;SDS011;8838;50.144;8.176;2023-08-17T04:09:53;19.08;;;3.45;;
17441;SDS011;8838;50.144;8.176;2023-08-17T04:12:19;25.95;;;3.47;;
17441;SDS011;8838;50.144;8.176;2023-08-17T04:14:47;20.05;;;4.10;;
17441;SDS011;8838;50.144;8.176;2023-08-17T04:17:14;11.07;;;3.50;;
17441;SDS011;8838;50.144;8.176;2023-08-17T04:19:41;14.27;;;3.97;;
17441;SDS011;8838;50.144;8.176;2023-08-17T04:22:08;11.73;;;3.25;;
17441;SDS011;8838;50.144;8.176;2023-08-17T04:24:35;11.88;;;2.92;;
17441;SDS011;8838;50.144;8.176;2023-08-17T04:27:02;23.13;;;3.42;;
17441;SDS011;8838;50.144;8.176;2023-08-17T04:29:29;7.13;;;2.75;;
17441;SDS011;8838;50.144;8.176;2023-08-17T04:31:58;9.48;;;2.63;;
17441;SDS011;8838;50.144;8.176;2023-08-17T04:34:24;7.95;;;2.97;;
17441;SDS011;8838;50.144;8.176;2023-08-17T04:36:51;6.68;;;2.88;;
17441;SDS011;8838;50.144;8.176;2023-08-17T04:39:18;7.28;;;2.50;;
17441;SDS011;8838;50.144;8.176;2023-08-17T04:41:45;8.90;;;2.38;;
17441;SDS011;8838;50.144;8.176;2023-08-17T04:44:11;7.13;;;2.65;;
17441;SDS011;8838;50.144;8.176;2023-08-17T04:46:38;5.22;;;3.00;;
17441;SDS011;8838;50.144;8.176;2023-08-17T04:49:06;3.90;;;2.53;;
17441;SDS011;8838;50.144;8.176;2023-08-17T04:51:33;4.10;;;2.65;;
17441;SDS011;8838;50.144;8.176;2023-08-17T04:54:00;5.65;;;2.60;;
17441;SDS011;8838;50.144;8.176;2023-08-17T04:56:26;4.85;;;2.97;;
17441;SDS011;8838;50.144;8.176;2023-08-17T04:58:53;4.47;;;3.10;;
17441;SDS011;8838;50.144;8.176;2023-08-17T05:01:20;5.75;;;3.15;;
17441;SDS011;8838;50.144;8.176;2023-08-17T05:03:47;3.35;;;2.90;;
17441;SDS011;8838;50.144;8.176;2023-08-17T05:06:15;5.45;;;3.03;;
17441;SDS011;8838;50.144;8.176;2023-08-17T05:08:42;4.90;;;2.97;;
17441;SDS011;8838;50.144;8.176;2023-08-17T05:11:09;5.47;;;3.58;;
17441;SDS011;8838;50.144;8.176;2023-08-17T05:13:35;8.48;;;4.28;;
17441;SDS011;8838;50.144;8.176;2023-08-17T05:16:02;7.25;;;4.25;;
17441;SDS011;8838;50.144;8.176;2023-08-17T05:18:30;6.45;;;4.18;;
17441;SDS011;8838;50.144;8.176;2023-08-17T05:20:56;10.18;;;5.43;;
17441;SDS011;8838;50.144;8.176;2023-08-17T05:23:25;9.30;;;5.40;;
17441;SDS011;8838;50.144;8.176;2023-08-17T05:25:51;8.43;;;5.03;;
17441;SDS011;8838;50.144;8.176;2023-08-17T05:28:18;8.68;;;5.63;;
17441;SDS011;8838;50.144;8.176;2023-08-17T05:30:45;9.48;;;6.07;;
17441;SDS011;8838;50.144;8.176;2023-08-17T05:33:12;11.30;;;6.07;;
17441;SDS011;8838;50.144;8.176;2023-08-17T05:35:38;8.90;;;6.68;;
17441;SDS011;8838;50.144;8.176;2023-08-17T05:38:07;10.82;;;6.43;;
17441;SDS011;8838;50.144;8.176;2023-08-17T05:40:36;11.13;;;7.20;;
17441;SDS011;8838;50.144;8.176;2023-08-17T05:43:03;13.02;;;7.82;;
17441;SDS011;8838;50.144;8.176;2023-08-17T05:45:30;10.00;;;7.05;;
17441;SDS011;8838;50.144;8.176;2023-08-17T05:48:02;12.60;;;7.78;;
17441;SDS011;8838;50.144;8.176;2023-08-17T05:50:29;11.63;;;7.75;;
17441;SDS011;8838;50.144;8.176;2023-08-17T05:52:55;26.60;;;8.15;;
17441;SDS011;8838;50.144;8.176;2023-08-17T05:55:22;11.93;;;7.38;;
17441;SDS011;8838;50.144;8.176;2023-08-17T05:57:50;18.15;;;7.97;;
17441;SDS011;8838;50.144;8.176;2023-08-17T06:00:17;15.38;;;7.60;;
17441;SDS011;8838;50.144;8.176;2023-08-17T06:02:44;13.63;;;8.00;;
17441;SDS011;8838;50.144;8.176;2023-08-17T06:05:14;14.68;;;8.63;;
17441;SDS011;8838;50.144;8.176;2023-08-17T06:07:41;12.98;;;8.07;;
17441;SDS011;8838;50.144;8.176;2023-08-17T06:10:09;13.48;;;8.32;;
17441;SDS011;8838;50.144;8.176;2023-08-17T06:12:36;12.35;;;8.38;;
17441;SDS011;8838;50.144;8.176;2023-08-17T06:15:05;13.23;;;8.82;;
17441;SDS011;8838;50.144;8.176;2023-08-17T06:17:32;11.02;;;8.00;;
17441;SDS011;8838;50.144;8.176;2023-08-17T06:19:59;9.25;;;6.13;;
17441;SDS011;8838;50.144;8.176;2023-08-17T06:22:26;11.93;;;7.65;;
17441;SDS011;8838;50.144;8.176;2023-08-17T06:24:52;9.55;;;7.00;;
17441;SDS011;8838;50.144;8.176;2023-08-17T06:27:19;11.48;;;7.18;;
17441;SDS011;8838;50.144;8.176;2023-08-17T06:29:46;13.15;;;7.60;;
17441;SDS011;8838;50.144;8.176;2023-08-17T06:32:14;8.98;;;6.68;;
17441;SDS011;8838;50.144;8.176;2023-08-17T06:34:41;9.63;;;7.15;;
17441;SDS011;8838;50.144;8.176;2023-08-17T06:37:07;11.02;;;7.20;;
17441;SDS011;8838;50.144;8.176;2023-08-17T06:39:34;12.88;;;7.70;;
17441;SDS011;8838;50.144;8.176;2023-08-17T06:42:01;12.68;;;7.82;;
17441;SDS011;8838;50.144;8.176;2023-08-17T06:44:28;10.65;;;8.05;;
17441;SDS011;8838;50.144;8.176;2023-08-17T06:46:55;10.57;;;6.93;;
17441;SDS011;8838;50.144;8.176;2023-08-17T06:49:24;12.32;;;7.80;;
17441;SDS011;8838;50.144;8.176;2023-08-17T06:51:52;10.70;;;7.03;;
17441;SDS011;8838;50.144;8.176;2023-08-17T06:54:19;10.00;;;6.50;;
17441;SDS011;8838;50.144;8.176;2023-08-17T06:56:46;11.07;;;6.57;;
17441;SDS011;8838;50.144;8.176;2023-08-17T06:59:12;9.43;;;6.28;;
17441;SDS011;8838;50.144;8.176;2023-08-17T07:01:39;10.10;;;6.15;;
17441;SDS011;8838;50.144;8.176;2023-08-17T07:04:06;14.20;;;7.32;;
17441;SDS011;8838;50.144;8.176;2023-08-17T07:06:34;7.97;;;6.38;;
17441;SDS011;8838;50.144;8.176;2023-08-17T07:09:01;9.50;;;6.07;;
17441;SDS011;8838;50.144;8.176;2023-08-17T07:11:32;8.38;;;6.20;;
17441;SDS011;8838;50.144;8.176;2023-08-17T07:13:59;9.90;;;6.60;;
17441;SDS011;8838;50.144;8.176;2023-08-17T07:16:29;13.75;;;7.50;;
17441;SDS011;8838;50.144;8.176;2023-08-17T07:18:56;11.38;;;7.72;;
17441;SDS011;8838;50.144;8.176;2023-08-17T07:21:22;10.65;;;6.45;;
17441;SDS011;8838;50.144;8.176;2023-08-17T07:23:51;9.95;;;6.53;;
17441;SDS011;8838;50.144;8.176;2023-08-17T07:26:20;8.48;;;6.65;;
17441;SDS011;8838;50.144;8.176;2023-08-17T07:28:47;9.30;;;7.00;;
17441;SDS011;8838;50.144;8.176;2023-08-17T07:31:15;9.50;;;6.07;;
17441;SDS011;8838;50.144;8.176;2023-08-17T07:33:42;10.02;;;6.10;;
17441;SDS011;8838;50.144;8.176;2023-08-17T07:36:08;7.88;;;5.90;;
17441;SDS011;8838;50.144;8.176;2023-08-17T07:38:35;6.78;;;5.70;;
17441;SDS011;8838;50.144;8.176;2023-08-17T07:41:03;6.93;;;5.10;;
17441;SDS011;8838;50.144;8.176;2023-08-17T07:43:30;5.70;;;5.10;;
17441;SDS011;8838;50.144;8.176;2023-08-17T07:45:57;7.03;;;5.65;;
17441;SDS011;8838;50.144;8.176;2023-08-17T07:48:24;7.07;;;5.55;;
17441;SDS011;8838;50.144;8.176;2023-08-17T07:50:51;6.50;;;5.88;;
17441;SDS011;8838;50.144;8.176;2023-08-17T07:53:18;6.57;;;5.78;;
17441;SDS011;8838;50.144;8.176;2023-08-17T07:55:45;6.20;;;5.60;;
17441;SDS011;8838;50.144;8.176;2023-08-17T07:58:13;7.78;;;5.28;;
17441;SDS011;8838;50.144;8.176;2023-08-17T08:00:40;8.15;;;5.13;;
17441;SDS011;8838;50.144;8.176;2023-08-17T08:03:07;6.60;;;4.28;;
17441;SDS011;8838;50.144;8.176;2023-08-17T08:05:34;7.00;;;4.43;;
17441;SDS011;8838;50.144;8.176;2023-08-17T08:08:01;5.68;;;3.90;;
17441;SDS011;8838;50.144;8.176;2023-08-17T08:10:27;6.50;;;3.97;;
17441;SDS011;8838;50.144;8.176;2023-08-17T08:12:54;6.90;;;3.80;;
17441;SDS011;8838;50.144;8.176;2023-08-17T08:15:22;6.03;;;4.07;;
17441;SDS011;8838;50.144;8.176;2023-08-17T08:17:49;5.07;;;3.95;;
17441;SDS011;8838;50.144;8.176;2023-08-17T08:20:16;6.90;;;3.70;;
17441;SDS011;8838;50.144;8.176;2023-08-17T08:22:43;4.25;;;3.47;;
17441;SDS011;8838;50.144;8.176;2023-08-17T08:25:10;3.53;;;3.08;;
17441;SDS011;8838;50.144;8.176;2023-08-17T08:27:36;3.40;;;3.03;;
17441;SDS011;8838;50.144;8.176;2023-08-17T08:30:06;4.03;;;2.42;;
17441;SDS011;8838;50.144;8.176;2023-08-17T08:32:35;2.72;;;2.53;;
17441;SDS011;8838;50.144;8.176;2023-08-17T08:35:01;3.10;;;2.80;;
17441;SDS011;8838;50.144;8.176;2023-08-17T08:37:28;2.72;;;2.50;;
17441;SDS011;8838;50.144;8.176;2023-08-17T08:39:58;4.47;;;2.47;;
17441;SDS011;8838;50.144;8.176;2023-08-17T08:42:25;3.30;;;2.50;;
17441;SDS011;8838;50.144;8.176;2023-08-17T08:44:52;2.92;;;2.63;;
17441;SDS011;8838;50.144;8.176;2023-08-17T08:47:19;3.20;;;2.08;;
17441;SDS011;8838;50.144;8.176;2023-08-17T08:49:53;3.08;;;1.70;;
17441;SDS011;8838;50.144;8.176;2023-08-17T08:52:28;4.25;;;1.75;;
17441;SDS011;8838;50.144;8.176;2023-08-17T08:55:00;3.72;;;1.70;;
17441;SDS011;8838;50.144;8.176;2023-08-17T08:57:36;1.95;;;1.75;;
17441;SDS011;8838;50.144;8.176;2023-08-17T09:00:05;5.63;;;3.38;;
17441;SDS011;8838;50.144;8.176;2023-08-17T09:02:34;4.85;;;2.20;;
17441;SDS011;8838;50.144;8.176;2023-08-17T09:05:04;3.20;;;1.75;;
17441;SDS011;8838;50.144;8.176;2023-08-17T09:07:32;4.68;;;2.88;;
17441;SDS011;8838;50.144;8.176;2023-08-17T09:10:00;1.63;;;1.52;;
17441;SDS011;8838;50.144;8.176;2023-08-17T09:12:28;4.43;;;1.70;;
17441;SDS011;8838;50.144;8.176;2023-08-17T09:14:56;3.95;;;1.73;;
17441;SDS011;8838;50.144;8.176;2023-08-17T09:17:23;2.47;;;1.80;;
17441;SDS011;8838;50.144;8.176;2023-08-17T09:19:50;1.92;;;1.80;;
17441;SDS011;8838;50.144;8.176;2023-08-17T09:22:23;2.97;;;1.55;;
17441;SDS011;8838;50.144;8.176;2023-08-17T09:24:50;3.90;;;1.70;;
17441;SDS011;8838;50.144;8.176;2023-08-17T09:27:17;3.17;;;1.25;;
17441;SDS011;8838;50.144;8.176;2023-08-17T09:29:44;1.23;;;1.13;;
17441;SDS011;8838;50.144;8.176;2023-08-17T09:32:11;4.55;;;1.10;;
17441;SDS011;8838;50.144;8.176;2023-08-17T09:34:41;2.33;;;1.30;;
17441;SDS011;8838;50.144;8.176;2023-08-17T09:37:07;1.20;;;1.10;;
17441;SDS011;8838;50.144;8.176;2023-08-17T09:39:35;1.63;;;1.23;;
17441;SDS011;8838;50.144;8.176;2023-08-17T09:42:03;2.35;;;1.40;;
17441;SDS011;8838;50.144;8.176;2023-08-17T09:44:32;3.38;;;2.05;;
17441;SDS011;8838;50.144;8.176;2023-08-17T09:47:00;1.05;;;0.95;;
17441;SDS011;8838;50.144;8.176;2023-08-17T09:49:30;1.20;;;1.10;;
17441;SDS011;8838;50.144;8.176;2023-08-17T09:51:59;2.03;;;0.95;;
17441;SDS011;8838;50.144;8.176;2023-08-17T09:54:27;2.40;;;1.20;;
17441;SDS011;8838;50.144;8.176;2023-08-17T09:56:58;3.08;;;1.30;;
17441;SDS011;8838;50.144;8.176;2023-08-17T09:59:25;1.35;;;1.10;;
17441;SDS011;8838;50.144;8.176;2023-08-17T10:01:52;1.50;;;1.13;;
17441;SDS011;8838;50.144;8.176;2023-08-17T10:04:20;1.95;;;1.40;;
17441;SDS011;8838;50.144;8.176;2023-08-17T10:06:48;1.88;;;1.30;;
17441;SDS011;8838;50.144;8.176;2023-08-17T10:09:18;2.70;;;1.20;;
17441;SDS011;8838;50.144;8.176;2023-08-17T10:11:49;1.45;;;1.00;;
17441;SDS011;8838;50.144;8.176;2023-08-17T10:14:21;2.85;;;1.13;;
17441;SDS011;8838;50.144;8.176;2023-08-17T10:16:57;2.15;;;1.23;;
17441;SDS011;8838;50.144;8.176;2023-08-17T10:19:30;2.45;;;1.23;;
17441;SDS011;8838;50.144;8.176;2023-08-17T10:22:03;2.40;;;1.35;;
17441;SDS011;8838;50.144;8.176;2023-08-17T10:24:34;4.20;;;1.38;;
17441;SDS011;8838;50.144;8.176;2023-08-17T10:27:03;1.52;;;1.20;;
17441;SDS011;8838;50.144;8.176;2023-08-17T10:29:33;1.83;;;1.05;;
17441;SDS011;8838;50.144;8.176;2023-08-17T10:32:00;2.55;;;1.40;;
17441;SDS011;8838;50.144;8.176;2023-08-17T10:34:28;1.67;;;1.27;;
17441;SDS011;8838;50.144;8.176;2023-08-17T10:36:55;1.38;;;1.10;;
17441;SDS011;8838;50.144;8.176;2023-08-17T10:39:25;1.55;;;1.05;;
17441;SDS011;8838;50.144;8.176;2023-08-17T10:41:53;1.20;;;1.10;;
17441;SDS011;8838;50.144;8.176;2023-08-17T10:49:49;3.13;;;1.15;;
17441;SDS011;8838;50.144;8.176;2023-08-17T10:52:24;3.38;;;1.23;;
17441;SDS011;8838;50.144;8.176;2023-08-17T10:54:52;1.10;;;1.10;;
17441;SDS011;8838;50.144;8.176;2023-08-17T10:57:33;3.20;;;1.40;;
17441;SDS011;8838;50.144;8.176;2023-08-17T11:00:11;3.58;;;1.20;;
17441;SDS011;8838;50.144;8.176;2023-08-17T11:02:42;3.28;;;1.60;;
17441;SDS011;8838;50.144;8.176;2023-08-17T11:05:10;1.33;;;1.10;;
17441;SDS011;8838;50.144;8.176;2023-08-17T11:07:38;3.30;;;1.50;;
17441;SDS011;8838;50.144;8.176;2023-08-17T11:10:13;2.13;;;1.20;;
17441;SDS011;8838;50.144;8.176;2023-08-17T11:12:54;2.72;;;1.20;;
17441;SDS011;8838;50.144;8.176;2023-08-17T11:15:26;1.88;;;1.30;;
17441;SDS011;8838;50.144;8.176;2023-08-17T11:18:02;1.30;;;1.20;;
17441;SDS011;8838;50.144;8.176;2023-08-17T11:20:30;1.75;;;1.30;;
17441;SDS011;8838;50.144;8.176;2023-08-17T11:22:57;1.42;;;1.33;;
17441;SDS011;8838;50.144;8.176;2023-08-17T11:25:25;2.42;;;1.30;;
17441;SDS011;8838;50.144;8.176;2023-08-17T11:27:52;4.18;;;1.20;;
17441;SDS011;8838;50.144;8.176;2023-08-17T11:30:20;2.92;;;1.60;;
17441;SDS011;8838;50.144;8.176;2023-08-17T11:32:48;1.50;;;1.30;;
17441;SDS011;8838;50.144;8.176;2023-08-17T11:35:16;4.28;;;1.50;;
17441;SDS011;8838;50.144;8.176;2023-08-17T11:37:43;3.15;;;1.30;;
17441;SDS011;8838;50.144;8.176;2023-08-17T11:40:10;3.30;;;1.23;;
17441;SDS011;8838;50.144;8.176;2023-08-17T11:42:37;3.58;;;1.40;;
17441;SDS011;8838;50.144;8.176;2023-08-17T11:45:04;2.10;;;1.33;;
17441;SDS011;8838;50.144;8.176;2023-08-17T11:47:34;3.33;;;1.20;;
17441;SDS011;8838;50.144;8.176;2023-08-17T11:50:02;1.73;;;1.20;;
17441;SDS011;8838;50.144;8.176;2023-08-17T11:52:30;2.80;;;1.33;;
17441;SDS011;8838;50.144;8.176;2023-08-17T11:54:57;1.67;;;1.40;;
17441;SDS011;8838;50.144;8.176;2023-08-17T11:57:24;3.38;;;1.50;;
17441;SDS011;8838;50.144;8.176;2023-08-17T11:59:52;4.10;;;1.50;;
17441;SDS011;8838;50.144;8.176;2023-08-17T12:02:20;2.17;;;1.48;;
17441;SDS011;8838;50.144;8.176;2023-08-17T12:04:47;2.72;;;1.40;;
17441;SDS011;8838;50.144;8.176;2023-08-17T12:07:16;3.60;;;1.35;;
17441;SDS011;8838;50.144;8.176;2023-08-17T12:09:43;1.98;;;1.30;;
17441;SDS011;8838;50.144;8.176;2023-08-17T12:12:10;1.98;;;1.20;;
17441;SDS011;8838;50.144;8.176;2023-08-17T12:14:40;2.75;;;1.25;;
17441;SDS011;8838;50.144;8.176;2023-08-17T12:17:13;1.67;;;1.30;;
17441;SDS011;8838;50.144;8.176;2023-08-17T12:19:40;2.55;;;1.55;;
17441;SDS011;8838;50.144;8.176;2023-08-17T12:22:07;1.85;;;1.17;;
17441;SDS011;8838;50.144;8.176;2023-08-17T12:24:35;1.75;;;1.20;;
17441;SDS011;8838;50.144;8.176;2023-08-17T12:27:04;2.85;;;1.27;;
17441;SDS011;8838;50.144;8.176;2023-08-17T12:29:31;1.75;;;1.20;;
17441;SDS011;8838;50.144;8.176;2023-08-17T12:31:58;6.47;;;1.52;;
17441;SDS011;8838;50.144;8.176;2023-08-17T12:34:25;1.67;;;1.30;;
17441;SDS011;8838;50.144;8.176;2023-08-17T12:36:51;3.90;;;1.40;;
17441;SDS011;8838;50.144;8.176;2023-08-17T12:39:18;2.33;;;1.50;;
17441;SDS011;8838;50.144;8.176;2023-08-17T12:41:46;1.40;;;1.30;;
17441;SDS011;8838;50.144;8.176;2023-08-17T12:44:13;4.63;;;1.40;;
17441;SDS011;8838;50.144;8.176;2023-08-17T12:46:40;2.70;;;1.48;;
17441;SDS011;8838;50.144;8.176;2023-08-17T12:49:07;2.10;;;1.40;;
17441;SDS011;8838;50.144;8.176;2023-08-17T12:51:34;2.70;;;1.30;;
17441;SDS011;8838;50.144;8.176;2023-08-17T12:54:01;2.53;;;1.73;;
17441;SDS011;8838;50.144;8.176;2023-08-17T12:56:27;3.97;;;1.40;;
17441;SDS011;8838;50.144;8.176;2023-08-17T12:58:55;3.50;;;1.60;;
17441;SDS011;8838;50.144;8.176;2023-08-17T13:01:22;2.53;;;1.40;;
17441;SDS011;8838;50.144;8.176;2023-08-17T13:03:49;3.42;;;1.33;;
17441;SDS011;8838;50.144;8.176;2023-08-17T13:06:15;2.15;;;1.45;;
17441;SDS011;8838;50.144;8.176;2023-08-17T13:08:42;1.70;;;1.25;;
17441;SDS011;8838;50.144;8.176;2023-08-17T13:11:10;2.97;;;1.70;;
17441;SDS011;8838;50.144;8.176;2023-08-17T13:13:37;1.40;;;1.30;;
17441;SDS011;8838;50.144;8.176;2023-08-17T13:16:05;1.77;;;1.50;;
17441;SDS011;8838;50.144;8.176;2023-08-17T13:18:32;3.95;;;1.30;;
17441;SDS011;8838;50.144;8.176;2023-08-17T13:20:59;4.47;;;1.52;;
17441;SDS011;8838;50.144;8.176;2023-08-17T13:23:25;2.30;;;1.52;;
17441;SDS011;8838;50.144;8.176;2023-08-17T13:25:53;1.60;;;1.50;;
17441;SDS011;8838;50.144;8.176;2023-08-17T13:28:20;2.55;;;1.40;;
17441;SDS011;8838;50.144;8.176;2023-08-17T13:30:46;5.30;;;1.88;;
17441;SDS011;8838;50.144;8.176;2023-08-17T13:33:15;1.45;;;1.35;;
17441;SDS011;8838;50.144;8.176;2023-08-17T13:35:42;1.40;;;1.30;;
17441;SDS011;8838;50.144;8.176;2023-08-17T13:38:09;2.58;;;1.60;;
17441;SDS011;8838;50.144;8.176;2023-08-17T13:40:36;2.03;;;1.50;;
17441;SDS011;8838;50.144;8.176;2023-08-17T13:43:04;2.05;;;1.27;;
17441;SDS011;8838;50.144;8.176;2023-08-17T13:45:37;1.45;;;1.35;;
17441;SDS011;8838;50.144;8.176;2023-08-17T13:48:04;3.50;;;1.45;;
17441;SDS011;8838;50.144;8.176;2023-08-17T13:50:33;1.55;;;1.38;;
17441;SDS011;8838;50.144;8.176;2023-08-17T13:53:00;3.33;;;1.30;;
17441;SDS011;8838;50.144;8.176;2023-08-17T13:55:27;5.10;;;1.70;;
17441;SDS011;8838;50.144;8.176;2023-08-17T13:57:54;4.20;;;1.80;;
17441;SDS011;8838;50.144;8.176;2023-08-17T14:00:21;4.20;;;1.35;;
17441;SDS011;8838;50.144;8.176;2023-08-17T14:02:48;9.23;;;5.80;;
17441;SDS011;8838;50.144;8.176;2023-08-17T14:05:15;2.60;;;1.65;;
17441;SDS011;8838;50.144;8.176;2023-08-17T14:07:43;3.83;;;1.60;;
17441;SDS011;8838;50.144;8.176;2023-08-17T14:10:13;2.35;;;1.73;;
17441;SDS011;8838;50.144;8.176;2023-08-17T14:12:40;3.78;;;1.38;;
17441;SDS011;8838;50.144;8.176;2023-08-17T14:15:07;2.63;;;1.42;;
17441;SDS011;8838;50.144;8.176;2023-08-17T14:17:34;2.35;;;1.85;;
17441;SDS011;8838;50.144;8.176;2023-08-17T14:20:01;2.33;;;1.80;;
17441;SDS011;8838;50.144;8.176;2023-08-17T14:22:29;4.22;;;1.80;;
17441;SDS011;8838;50.144;8.176;2023-08-17T14:24:58;2.90;;;1.58;;
17441;SDS011;8838;50.144;8.176;2023-08-17T14:27:25;4.28;;;1.60;;
17441;SDS011;8838;50.144;8.176;2023-08-17T14:29:52;6.00;;;1.58;;
17441;SDS011;8838;50.144;8.176;2023-08-17T14:32:19;3.20;;;1.65;;
17441;SDS011;8838;50.144;8.176;2023-08-17T14:34:45;3.85;;;1.80;;
17441;SDS011;8838;50.144;8.176;2023-08-17T14:37:14;1.92;;;1.70;;
17441;SDS011;8838;50.144;8.176;2023-08-17T14:39:41;3.13;;;1.50;;
17441;SDS011;8838;50.144;8.176;2023-08-17T14:42:09;1.77;;;1.67;;
17441;SDS011;8838;50.144;8.176;2023-08-17T14:44:36;5.55;;;1.67;;
17441;SDS011;8838;50.144;8.176;2023-08-17T14:47:03;3.78;;;1.60;;
17441;SDS011;8838;50.144;8.176;2023-08-17T14:49:30;2.38;;;1.50;;
17441;SDS011;8838;50.144;8.176;2023-08-17T14:51:57;3.67;;;1.48;;
17441;SDS011;8838;50.144;8.176;2023-08-17T14:54:24;2.28;;;1.48;;
17441;SDS011;8838;50.144;8.176;2023-08-17T14:56:51;2.33;;;1.60;;
17441;SDS011;8838;50.144;8.176;2023-08-17T14:59:19;2.55;;;1.60;;
17441;SDS011;8838;50.144;8.176;2023-08-17T15:01:46;3.83;;;1.60;;
17441;SDS011;8838;50.144;8.176;2023-08-17T15:04:14;4.18;;;1.98;;